sensor_id;sensor_type;location;lat;lon;timestamp;temperature;humidity
29363;DHT22;16349;53.672;10.014;2022-11-04T00:01:54;10.80;99.90
29363;DHT22;16349;53.672;10.014;2022-11-04T00:04:22;10.80;99.90
29363;DHT22;16349;53.672;10.014;2022-11-04T00:06:50;10.70;99.90
29363;DHT22;16349;53.672;10.014;2022-11-04T00:09:18;10.70;99.90
29363;DHT22;16349;53.672;10.014;2022-11-04T00:11:48;10.70;99.90
29363;DHT22;16349;53.672;10.014;2022-11-04T00:14:32;10.70;99.90
29363;DHT22;16349;53.672;10.014;2022-11-04T00:17:00;10.70;99.90
29363;DHT22;16349;53.672;10.014;2022-11-04T00:19:44;10.70;99.90
29363;DHT22;16349;53.672;10.014;2022-11-04T00:22:28;10.70;99.90
29363;DHT22;16349;53.672;10.014;2022-11-04T00:25:13;10.60;99.90
29363;DHT22;16349;53.672;10.014;2022-11-04T00:28:08;10.60;99.90
29363;DHT22;16349;53.672;10.014;2022-11-04T00:30:54;10.60;99.90
29363;DHT22;16349;53.672;10.014;2022-11-04T00:33:21;10.60;99.90
29363;DHT22;16349;53.672;10.014;2022-11-04T00:35:51;10.60;99.90
29363;DHT22;16349;53.672;10.014;2022-11-04T00:38:18;10.60;99.90
29363;DHT22;16349;53.672;10.014;2022-11-04T00:40:45;10.60;99.90
29363;DHT22;16349;53.672;10.014;2022-11-04T00:43:12;10.60;99.90
29363;DHT22;16349;53.672;10.014;2022-11-04T00:45:40;10.60;99.90
29363;DHT22;16349;53.672;10.014;2022-11-04T00:48:06;10.60;99.90
29363;DHT22;16349;53.672;10.014;2022-11-04T00:50:33;10.60;99.90
29363;DHT22;16349;53.672;10.014;2022-11-04T00:53:00;10.60;99.90
29363;DHT22;16349;53.672;10.014;2022-11-04T00:55:28;10.60;99.90
29363;DHT22;16349;53.672;10.014;2022-11-04T00:57:57;10.60;99.90
29363;DHT22;16349;53.672;10.014;2022-11-04T01:00:25;10.60;99.90
29363;DHT22;16349;53.672;10.014;2022-11-04T01:02:52;10.60;99.90
29363;DHT22;16349;53.672;10.014;2022-11-04T01:05:18;10.60;99.90
29363;DHT22;16349;53.672;10.014;2022-11-04T01:07:45;10.60;99.90
29363;DHT22;16349;53.672;10.014;2022-11-04T01:10:12;10.60;99.90
29363;DHT22;16349;53.672;10.014;2022-11-04T01:12:38;10.60;99.90
29363;DHT22;16349;53.672;10.014;2022-11-04T01:15:05;10.60;99.90
29363;DHT22;16349;53.672;10.014;2022-11-04T01:17:33;10.60;99.90
29363;DHT22;16349;53.672;10.014;2022-11-04T01:20:00;10.60;99.90
29363;DHT22;16349;53.672;10.014;2022-11-04T01:22:28;10.70;99.90
29363;DHT22;16349;53.672;10.014;2022-11-04T01:24:54;10.70;99.90
29363;DHT22;16349;53.672;10.014;2022-11-04T01:27:21;10.70;99.90
29363;DHT22;16349;53.672;10.014;2022-11-04T01:29:48;10.70;99.90
29363;DHT22;16349;53.672;10.014;2022-11-04T01:32:14;10.70;99.90
29363;DHT22;16349;53.672;10.014;2022-11-04T01:34:42;10.70;99.90
29363;DHT22;16349;53.672;10.014;2022-11-04T01:37:09;10.70;99.90
29363;DHT22;16349;53.672;10.014;2022-11-04T01:39:35;10.70;99.90
29363;DHT22;16349;53.672;10.014;2022-11-04T01:42:02;10.80;99.90
29363;DHT22;16349;53.672;10.014;2022-11-04T01:44:53;10.70;99.90
29363;DHT22;16349;53.672;10.014;2022-11-04T01:47:23;10.80;99.90
29363;DHT22;16349;53.672;10.014;2022-11-04T01:49:55;10.70;99.90
29363;DHT22;16349;53.672;10.014;2022-11-04T01:52:27;10.70;99.90
29363;DHT22;16349;53.672;10.014;2022-11-04T01:54:59;10.80;99.90
29363;DHT22;16349;53.672;10.014;2022-11-04T01:57:31;10.80;99.90
29363;DHT22;16349;53.672;10.014;2022-11-04T02:00:02;10.80;99.90
29363;DHT22;16349;53.672;10.014;2022-11-04T02:02:43;10.80;99.90
29363;DHT22;16349;53.672;10.014;2022-11-04T02:05:13;10.80;99.90
29363;DHT22;16349;53.672;10.014;2022-11-04T02:07:39;10.80;99.90
29363;DHT22;16349;53.672;10.014;2022-11-04T02:10:07;10.80;99.90
29363;DHT22;16349;53.672;10.014;2022-11-04T02:12:34;10.80;99.90
29363;DHT22;16349;53.672;10.014;2022-11-04T02:15:19;10.80;99.90
29363;DHT22;16349;53.672;10.014;2022-11-04T02:18:11;10.80;99.90
29363;DHT22;16349;53.672;10.014;2022-11-04T02:24:13;10.80;99.90
29363;DHT22;16349;53.672;10.014;2022-11-04T02:27:03;10.80;99.90
29363;DHT22;16349;53.672;10.014;2022-11-04T02:29:45;10.80;99.90
29363;DHT22;16349;53.672;10.014;2022-11-04T02:32:18;10.80;99.90
29363;DHT22;16349;53.672;10.014;2022-11-04T02:34:54;10.80;99.90
29363;DHT22;16349;53.672;10.014;2022-11-04T02:37:29;10.80;99.90
29363;DHT22;16349;53.672;10.014;2022-11-04T02:40:06;10.80;99.90
29363;DHT22;16349;53.672;10.014;2022-11-04T02:42:40;10.80;99.90
29363;DHT22;16349;53.672;10.014;2022-11-04T02:45:13;10.80;99.90
29363;DHT22;16349;53.672;10.014;2022-11-04T02:47:43;10.70;99.90
29363;DHT22;16349;53.672;10.014;2022-11-04T02:50:13;10.80;99.90
29363;DHT22;16349;53.672;10.014;2022-11-04T02:52:46;10.70;99.90
29363;DHT22;16349;53.672;10.014;2022-11-04T02:55:17;10.70;99.90
29363;DHT22;16349;53.672;10.014;2022-11-04T02:57:45;10.70;99.90
29363;DHT22;16349;53.672;10.014;2022-11-04T03:00:15;10.70;99.90
29363;DHT22;16349;53.672;10.014;2022-11-04T03:02:47;10.70;99.90
29363;DHT22;16349;53.672;10.014;2022-11-04T03:05:18;10.70;99.90
29363;DHT22;16349;53.672;10.014;2022-11-04T03:07:47;10.70;99.90
29363;DHT22;16349;53.672;10.014;2022-11-04T03:10:16;10.60;99.90
29363;DHT22;16349;53.672;10.014;2022-11-04T03:12:48;10.60;99.90
29363;DHT22;16349;53.672;10.014;2022-11-04T03:15:21;10.60;99.90
29363;DHT22;16349;53.672;10.014;2022-11-04T03:17:59;10.60;99.90
29363;DHT22;16349;53.672;10.014;2022-11-04T03:20:30;10.60;99.90
29363;DHT22;16349;53.672;10.014;2022-11-04T03:22:57;10.60;99.90
29363;DHT22;16349;53.672;10.014;2022-11-04T03:25:29;10.60;99.90
29363;DHT22;16349;53.672;10.014;2022-11-04T03:28:02;10.60;99.90
29363;DHT22;16349;53.672;10.014;2022-11-04T03:30:36;10.60;99.90
29363;DHT22;16349;53.672;10.014;2022-11-04T03:33:11;10.60;99.90
29363;DHT22;16349;53.672;10.014;2022-11-04T03:35:42;10.60;99.90
29363;DHT22;16349;53.672;10.014;2022-11-04T03:38:09;10.60;99.90
29363;DHT22;16349;53.672;10.014;2022-11-04T03:40:36;10.60;99.90
29363;DHT22;16349;53.672;10.014;2022-11-04T03:43:07;10.60;99.90
29363;DHT22;16349;53.672;10.014;2022-11-04T03:45:38;10.60;99.90
29363;DHT22;16349;53.672;10.014;2022-11-04T03:48:05;10.60;99.90
29363;DHT22;16349;53.672;10.014;2022-11-04T03:50:39;10.60;99.90
29363;DHT22;16349;53.672;10.014;2022-11-04T03:53:07;10.60;99.90
29363;DHT22;16349;53.672;10.014;2022-11-04T03:55:41;10.60;99.90
29363;DHT22;16349;53.672;10.014;2022-11-04T03:58:16;10.70;99.90
29363;DHT22;16349;53.672;10.014;2022-11-04T04:00:53;10.70;99.90
29363;DHT22;16349;53.672;10.014;2022-11-04T04:03:25;10.70;99.90
29363;DHT22;16349;53.672;10.014;2022-11-04T04:06:01;10.70;99.90
29363;DHT22;16349;53.672;10.014;2022-11-04T04:08:34;10.70;99.90
29363;DHT22;16349;53.672;10.014;2022-11-04T04:11:08;10.70;99.90
29363;DHT22;16349;53.672;10.014;2022-11-04T04:13:42;10.80;99.90
29363;DHT22;16349;53.672;10.014;2022-11-04T04:16:15;10.80;99.90
29363;DHT22;16349;53.672;10.014;2022-11-04T04:18:48;10.80;99.90
29363;DHT22;16349;53.672;10.014;2022-11-04T04:21:20;10.90;99.90
29363;DHT22;16349;53.672;10.014;2022-11-04T04:23:49;10.90;99.90
29363;DHT22;16349;53.672;10.014;2022-11-04T04:26:36;10.90;99.90
29363;DHT22;16349;53.672;10.014;2022-11-04T04:29:24;10.90;99.90
29363;DHT22;16349;53.672;10.014;2022-11-04T04:31:55;11.00;99.90
29363;DHT22;16349;53.672;10.014;2022-11-04T04:34:26;11.00;99.90
29363;DHT22;16349;53.672;10.014;2022-11-04T04:36:59;11.10;99.90
29363;DHT22;16349;53.672;10.014;2022-11-04T04:39:32;11.10;99.90
29363;DHT22;16349;53.672;10.014;2022-11-04T04:42:19;11.10;99.90
29363;DHT22;16349;53.672;10.014;2022-11-04T04:45:04;11.10;99.90
29363;DHT22;16349;53.672;10.014;2022-11-04T04:47:43;11.20;99.90
29363;DHT22;16349;53.672;10.014;2022-11-04T04:50:13;11.20;99.90
29363;DHT22;16349;53.672;10.014;2022-11-04T04:52:43;11.20;99.90
29363;DHT22;16349;53.672;10.014;2022-11-04T04:55:11;11.30;99.90
29363;DHT22;16349;53.672;10.014;2022-11-04T04:57:38;11.30;99.90
29363;DHT22;16349;53.672;10.014;2022-11-04T05:00:07;11.40;99.90
29363;DHT22;16349;53.672;10.014;2022-11-04T05:02:34;11.40;99.90
29363;DHT22;16349;53.672;10.014;2022-11-04T05:05:03;11.40;99.90
29363;DHT22;16349;53.672;10.014;2022-11-04T05:07:30;11.50;99.90
29363;DHT22;16349;53.672;10.014;2022-11-04T05:09:57;11.50;99.90
29363;DHT22;16349;53.672;10.014;2022-11-04T05:12:25;11.50;99.90
29363;DHT22;16349;53.672;10.014;2022-11-04T05:15:12;11.50;99.90
29363;DHT22;16349;53.672;10.014;2022-11-04T05:17:39;11.50;99.90
29363;DHT22;16349;53.672;10.014;2022-11-04T05:20:09;11.50;99.90
29363;DHT22;16349;53.672;10.014;2022-11-04T05:22:36;11.50;99.90
29363;DHT22;16349;53.672;10.014;2022-11-04T05:25:04;11.50;99.90
29363;DHT22;16349;53.672;10.014;2022-11-04T05:27:31;11.50;99.90
29363;DHT22;16349;53.672;10.014;2022-11-04T05:29:58;11.50;99.90
29363;DHT22;16349;53.672;10.014;2022-11-04T05:32:24;11.50;99.90
29363;DHT22;16349;53.672;10.014;2022-11-04T05:34:54;11.50;99.90
29363;DHT22;16349;53.672;10.014;2022-11-04T05:37:22;11.50;99.90
29363;DHT22;16349;53.672;10.014;2022-11-04T05:39:50;11.50;99.90
29363;DHT22;16349;53.672;10.014;2022-11-04T05:42:17;11.50;99.90
29363;DHT22;16349;53.672;10.014;2022-11-04T05:44:43;11.50;99.90
29363;DHT22;16349;53.672;10.014;2022-11-04T05:47:10;11.50;99.90
29363;DHT22;16349;53.672;10.014;2022-11-04T05:49:37;11.50;99.90
29363;DHT22;16349;53.672;10.014;2022-11-04T05:52:04;11.50;99.90
29363;DHT22;16349;53.672;10.014;2022-11-04T05:54:32;11.50;99.90
29363;DHT22;16349;53.672;10.014;2022-11-04T05:56:59;11.50;99.90
29363;DHT22;16349;53.672;10.014;2022-11-04T05:59:26;11.50;99.90
29363;DHT22;16349;53.672;10.014;2022-11-04T06:01:52;11.50;99.90
29363;DHT22;16349;53.672;10.014;2022-11-04T06:04:20;11.50;99.90
29363;DHT22;16349;53.672;10.014;2022-11-04T06:06:46;11.50;99.90
29363;DHT22;16349;53.672;10.014;2022-11-04T06:09:13;11.50;99.90
29363;DHT22;16349;53.672;10.014;2022-11-04T06:11:42;11.50;99.90
29363;DHT22;16349;53.672;10.014;2022-11-04T06:14:09;11.50;99.90
29363;DHT22;16349;53.672;10.014;2022-11-04T06:16:36;11.40;99.90
29363;DHT22;16349;53.672;10.014;2022-11-04T06:19:02;11.50;99.90
29363;DHT22;16349;53.672;10.014;2022-11-04T06:21:30;11.50;99.90
29363;DHT22;16349;53.672;10.014;2022-11-04T06:23:58;11.40;99.90
29363;DHT22;16349;53.672;10.014;2022-11-04T06:26:26;11.50;99.90
29363;DHT22;16349;53.672;10.014;2022-11-04T06:28:57;11.40;99.90
29363;DHT22;16349;53.672;10.014;2022-11-04T06:31:24;11.40;99.90
29363;DHT22;16349;53.672;10.014;2022-11-04T06:33:51;11.40;99.90
29363;DHT22;16349;53.672;10.014;2022-11-04T06:36:17;11.40;99.90
29363;DHT22;16349;53.672;10.014;2022-11-04T06:38:44;11.40;99.90
29363;DHT22;16349;53.672;10.014;2022-11-04T06:41:12;11.40;99.90
29363;DHT22;16349;53.672;10.014;2022-11-04T06:43:40;11.40;99.90
29363;DHT22;16349;53.672;10.014;2022-11-04T06:46:23;11.40;99.90
29363;DHT22;16349;53.672;10.014;2022-11-04T06:48:50;11.40;99.90
29363;DHT22;16349;53.672;10.014;2022-11-04T06:51:18;11.30;99.90
29363;DHT22;16349;53.672;10.014;2022-11-04T06:53:45;11.30;99.90
29363;DHT22;16349;53.672;10.014;2022-11-04T06:56:11;11.30;99.90
29363;DHT22;16349;53.672;10.014;2022-11-04T06:58:38;11.30;99.90
29363;DHT22;16349;53.672;10.014;2022-11-04T07:01:06;11.30;99.90
29363;DHT22;16349;53.672;10.014;2022-11-04T07:03:34;11.30;99.90
29363;DHT22;16349;53.672;10.014;2022-11-04T07:06:05;11.30;99.90
29363;DHT22;16349;53.672;10.014;2022-11-04T07:08:32;11.30;99.90
29363;DHT22;16349;53.672;10.014;2022-11-04T07:10:59;11.30;99.90
29363;DHT22;16349;53.672;10.014;2022-11-04T07:13:26;11.30;99.90
29363;DHT22;16349;53.672;10.014;2022-11-04T07:15:53;11.30;99.90
29363;DHT22;16349;53.672;10.014;2022-11-04T07:18:19;11.30;99.90
29363;DHT22;16349;53.672;10.014;2022-11-04T07:20:48;11.20;99.90
29363;DHT22;16349;53.672;10.014;2022-11-04T07:23:14;11.20;99.90
29363;DHT22;16349;53.672;10.014;2022-11-04T07:25:41;11.20;99.90
29363;DHT22;16349;53.672;10.014;2022-11-04T07:28:09;11.20;99.90
29363;DHT22;16349;53.672;10.014;2022-11-04T07:30:35;11.20;99.90
29363;DHT22;16349;53.672;10.014;2022-11-04T07:33:02;11.20;99.90
29363;DHT22;16349;53.672;10.014;2022-11-04T07:35:29;11.20;99.90
29363;DHT22;16349;53.672;10.014;2022-11-04T07:37:57;11.20;99.90
29363;DHT22;16349;53.672;10.014;2022-11-04T07:40:24;11.10;99.90
29363;DHT22;16349;53.672;10.014;2022-11-04T07:42:50;11.10;99.90
29363;DHT22;16349;53.672;10.014;2022-11-04T07:45:17;11.10;99.90
29363;DHT22;16349;53.672;10.014;2022-11-04T07:47:44;11.10;99.90
29363;DHT22;16349;53.672;10.014;2022-11-04T07:50:11;11.00;99.90
29363;DHT22;16349;53.672;10.014;2022-11-04T07:52:38;11.00;99.90
29363;DHT22;16349;53.672;10.014;2022-11-04T07:55:07;11.00;99.90
29363;DHT22;16349;53.672;10.014;2022-11-04T07:57:35;11.00;99.90
29363;DHT22;16349;53.672;10.014;2022-11-04T08:00:03;11.00;99.90
29363;DHT22;16349;53.672;10.014;2022-11-04T08:02:37;11.00;99.90
29363;DHT22;16349;53.672;10.014;2022-11-04T08:05:05;11.10;99.90
29363;DHT22;16349;53.672;10.014;2022-11-04T08:07:32;11.10;99.90
29363;DHT22;16349;53.672;10.014;2022-11-04T08:09:59;11.20;99.90
29363;DHT22;16349;53.672;10.014;2022-11-04T08:12:27;11.20;99.90
29363;DHT22;16349;53.672;10.014;2022-11-04T08:14:54;11.20;99.90
29363;DHT22;16349;53.672;10.014;2022-11-04T08:17:20;11.20;99.90
29363;DHT22;16349;53.672;10.014;2022-11-04T08:19:47;11.20;99.90
29363;DHT22;16349;53.672;10.014;2022-11-04T08:22:14;11.20;99.90
29363;DHT22;16349;53.672;10.014;2022-11-04T08:24:41;11.20;99.90
29363;DHT22;16349;53.672;10.014;2022-11-04T08:27:08;11.30;99.90
29363;DHT22;16349;53.672;10.014;2022-11-04T08:29:36;11.30;99.90
29363;DHT22;16349;53.672;10.014;2022-11-04T08:32:03;11.20;99.90
29363;DHT22;16349;53.672;10.014;2022-11-04T08:34:29;11.20;99.90
29363;DHT22;16349;53.672;10.014;2022-11-04T08:36:56;11.20;99.90
29363;DHT22;16349;53.672;10.014;2022-11-04T08:39:25;11.20;99.90
29363;DHT22;16349;53.672;10.014;2022-11-04T08:41:52;11.20;99.90
29363;DHT22;16349;53.672;10.014;2022-11-04T08:44:20;11.30;99.90
29363;DHT22;16349;53.672;10.014;2022-11-04T08:46:48;11.30;99.90
29363;DHT22;16349;53.672;10.014;2022-11-04T08:49:15;11.30;99.90
29363;DHT22;16349;53.672;10.014;2022-11-04T08:51:43;11.30;99.90
29363;DHT22;16349;53.672;10.014;2022-11-04T08:54:11;11.30;99.90
29363;DHT22;16349;53.672;10.014;2022-11-04T08:56:39;11.30;99.90
29363;DHT22;16349;53.672;10.014;2022-11-04T08:59:05;11.30;99.90
29363;DHT22;16349;53.672;10.014;2022-11-04T09:01:34;11.30;99.90
29363;DHT22;16349;53.672;10.014;2022-11-04T09:04:03;11.30;99.90
29363;DHT22;16349;53.672;10.014;2022-11-04T09:06:32;11.40;99.90
29363;DHT22;16349;53.672;10.014;2022-11-04T09:08:59;11.40;99.90
29363;DHT22;16349;53.672;10.014;2022-11-04T09:11:29;11.40;99.90
29363;DHT22;16349;53.672;10.014;2022-11-04T09:13:58;11.40;99.90
29363;DHT22;16349;53.672;10.014;2022-11-04T09:16:27;11.40;99.90
29363;DHT22;16349;53.672;10.014;2022-11-04T09:18:55;11.50;99.90
29363;DHT22;16349;53.672;10.014;2022-11-04T09:21:24;11.50;99.90
29363;DHT22;16349;53.672;10.014;2022-11-04T09:23:51;11.50;99.90
29363;DHT22;16349;53.672;10.014;2022-11-04T09:26:20;11.50;99.90
29363;DHT22;16349;53.672;10.014;2022-11-04T09:28:47;11.50;99.90
29363;DHT22;16349;53.672;10.014;2022-11-04T09:31:15;11.60;99.90
29363;DHT22;16349;53.672;10.014;2022-11-04T09:33:43;11.60;99.90
29363;DHT22;16349;53.672;10.014;2022-11-04T09:36:11;11.70;99.90
29363;DHT22;16349;53.672;10.014;2022-11-04T09:38:40;11.70;99.90
29363;DHT22;16349;53.672;10.014;2022-11-04T09:41:18;11.70;99.90
29363;DHT22;16349;53.672;10.014;2022-11-04T09:43:52;11.70;99.90
29363;DHT22;16349;53.672;10.014;2022-11-04T09:46:22;11.70;99.90
29363;DHT22;16349;53.672;10.014;2022-11-04T09:48:51;11.70;99.90
29363;DHT22;16349;53.672;10.014;2022-11-04T09:51:22;11.70;99.90
29363;DHT22;16349;53.672;10.014;2022-11-04T09:53:56;11.70;99.90
29363;DHT22;16349;53.672;10.014;2022-11-04T09:56:27;11.70;99.90
29363;DHT22;16349;53.672;10.014;2022-11-04T09:58:55;11.80;99.90
29363;DHT22;16349;53.672;10.014;2022-11-04T10:01:26;11.80;99.90
29363;DHT22;16349;53.672;10.014;2022-11-04T10:04:15;11.80;99.90
29363;DHT22;16349;53.672;10.014;2022-11-04T10:06:59;11.90;99.90
29363;DHT22;16349;53.672;10.014;2022-11-04T10:09:39;11.90;99.90
29363;DHT22;16349;53.672;10.014;2022-11-04T10:12:18;11.90;99.90
29363;DHT22;16349;53.672;10.014;2022-11-04T10:15:01;11.90;99.90
29363;DHT22;16349;53.672;10.014;2022-11-04T10:17:44;11.90;99.90
29363;DHT22;16349;53.672;10.014;2022-11-04T10:20:24;12.00;99.90
29363;DHT22;16349;53.672;10.014;2022-11-04T10:22:59;12.00;99.90
29363;DHT22;16349;53.672;10.014;2022-11-04T10:25:33;11.90;99.90
29363;DHT22;16349;53.672;10.014;2022-11-04T10:28:04;11.90;99.90
29363;DHT22;16349;53.672;10.014;2022-11-04T10:30:34;11.90;99.90
29363;DHT22;16349;53.672;10.014;2022-11-04T10:33:07;12.00;99.90
29363;DHT22;16349;53.672;10.014;2022-11-04T10:35:38;12.00;99.90
29363;DHT22;16349;53.672;10.014;2022-11-04T10:38:18;12.00;99.90
29363;DHT22;16349;53.672;10.014;2022-11-04T10:40:50;12.10;99.90
29363;DHT22;16349;53.672;10.014;2022-11-04T10:43:25;12.10;99.90
29363;DHT22;16349;53.672;10.014;2022-11-04T10:46:04;12.10;99.90
29363;DHT22;16349;53.672;10.014;2022-11-04T10:48:38;12.20;99.90
29363;DHT22;16349;53.672;10.014;2022-11-04T10:51:09;12.20;99.90
29363;DHT22;16349;53.672;10.014;2022-11-04T10:53:35;12.30;99.90
29363;DHT22;16349;53.672;10.014;2022-11-04T10:56:06;12.30;99.90
29363;DHT22;16349;53.672;10.014;2022-11-04T10:58:41;12.30;99.90
29363;DHT22;16349;53.672;10.014;2022-11-04T11:01:24;12.30;99.90
29363;DHT22;16349;53.672;10.014;2022-11-04T11:03:52;12.30;99.90
29363;DHT22;16349;53.672;10.014;2022-11-04T11:06:24;12.30;99.90
29363;DHT22;16349;53.672;10.014;2022-11-04T11:08:54;12.40;99.90
29363;DHT22;16349;53.672;10.014;2022-11-04T11:11:38;12.40;99.90
29363;DHT22;16349;53.672;10.014;2022-11-04T11:14:16;12.50;99.90
29363;DHT22;16349;53.672;10.014;2022-11-04T11:16:43;12.50;99.90
29363;DHT22;16349;53.672;10.014;2022-11-04T11:19:18;12.50;99.90
29363;DHT22;16349;53.672;10.014;2022-11-04T11:21:46;12.60;99.90
29363;DHT22;16349;53.672;10.014;2022-11-04T11:24:18;12.70;99.90
29363;DHT22;16349;53.672;10.014;2022-11-04T11:26:48;12.70;99.90
29363;DHT22;16349;53.672;10.014;2022-11-04T11:29:20;12.80;99.90
29363;DHT22;16349;53.672;10.014;2022-11-04T11:31:48;12.90;99.90
29363;DHT22;16349;53.672;10.014;2022-11-04T11:34:20;12.90;99.90
29363;DHT22;16349;53.672;10.014;2022-11-04T11:36:48;12.90;99.90
29363;DHT22;16349;53.672;10.014;2022-11-04T11:39:18;13.00;99.90
29363;DHT22;16349;53.672;10.014;2022-11-04T11:41:53;13.00;99.90
29363;DHT22;16349;53.672;10.014;2022-11-04T11:44:26;13.10;99.90
29363;DHT22;16349;53.672;10.014;2022-11-04T11:46:58;13.10;99.90
29363;DHT22;16349;53.672;10.014;2022-11-04T11:49:28;13.20;99.90
29363;DHT22;16349;53.672;10.014;2022-11-04T11:52:16;13.20;99.90
29363;DHT22;16349;53.672;10.014;2022-11-04T11:54:45;13.30;99.90
29363;DHT22;16349;53.672;10.014;2022-11-04T11:57:34;13.30;99.90
29363;DHT22;16349;53.672;10.014;2022-11-04T12:00:03;13.30;99.90
29363;DHT22;16349;53.672;10.014;2022-11-04T12:02:43;13.30;99.90
29363;DHT22;16349;53.672;10.014;2022-11-04T12:05:12;13.30;99.90
29363;DHT22;16349;53.672;10.014;2022-11-04T12:07:47;13.30;99.90
29363;DHT22;16349;53.672;10.014;2022-11-04T12:10:23;13.30;99.90
29363;DHT22;16349;53.672;10.014;2022-11-04T12:13:01;13.30;99.90
29363;DHT22;16349;53.672;10.014;2022-11-04T12:15:47;13.20;99.90
29363;DHT22;16349;53.672;10.014;2022-11-04T12:21:12;13.20;99.90
29363;DHT22;16349;53.672;10.014;2022-11-04T12:23:47;13.20;99.90
29363;DHT22;16349;53.672;10.014;2022-11-04T12:26:26;13.30;99.90
29363;DHT22;16349;53.672;10.014;2022-11-04T12:29:17;13.30;99.90
29363;DHT22;16349;53.672;10.014;2022-11-04T12:32:00;13.40;99.90
29363;DHT22;16349;53.672;10.014;2022-11-04T12:34:43;13.50;99.90
29363;DHT22;16349;53.672;10.014;2022-11-04T12:37:19;13.60;99.90
29363;DHT22;16349;53.672;10.014;2022-11-04T12:40:08;13.60;99.90
29363;DHT22;16349;53.672;10.014;2022-11-04T12:42:44;13.60;99.90
29363;DHT22;16349;53.672;10.014;2022-11-04T12:45:25;13.60;99.90
29363;DHT22;16349;53.672;10.014;2022-11-04T12:48:00;13.50;99.90
29363;DHT22;16349;53.672;10.014;2022-11-04T12:50:49;13.40;99.90
29363;DHT22;16349;53.672;10.014;2022-11-04T12:53:47;13.50;99.90
29363;DHT22;16349;53.672;10.014;2022-11-04T12:56:22;13.60;99.90
29363;DHT22;16349;53.672;10.014;2022-11-04T12:59:09;13.70;99.90
29363;DHT22;16349;53.672;10.014;2022-11-04T13:01:46;13.70;99.90
29363;DHT22;16349;53.672;10.014;2022-11-04T13:04:19;13.70;99.90
29363;DHT22;16349;53.672;10.014;2022-11-04T13:06:49;13.60;99.90
29363;DHT22;16349;53.672;10.014;2022-11-04T13:09:27;13.50;99.90
29363;DHT22;16349;53.672;10.014;2022-11-04T13:12:00;13.50;99.90
29363;DHT22;16349;53.672;10.014;2022-11-04T13:14:30;13.40;99.90
29363;DHT22;16349;53.672;10.014;2022-11-04T13:17:05;13.40;99.90
29363;DHT22;16349;53.672;10.014;2022-11-04T13:19:36;13.30;99.90
29363;DHT22;16349;53.672;10.014;2022-11-04T13:22:06;13.30;99.90
29363;DHT22;16349;53.672;10.014;2022-11-04T13:24:37;13.30;99.90
29363;DHT22;16349;53.672;10.014;2022-11-04T13:27:15;13.20;99.90
29363;DHT22;16349;53.672;10.014;2022-11-04T13:29:44;13.30;99.90
29363;DHT22;16349;53.672;10.014;2022-11-04T13:32:19;13.30;99.90
29363;DHT22;16349;53.672;10.014;2022-11-04T13:34:56;13.40;99.90
29363;DHT22;16349;53.672;10.014;2022-11-04T13:37:27;13.50;99.90
29363;DHT22;16349;53.672;10.014;2022-11-04T13:39:57;13.50;99.90
29363;DHT22;16349;53.672;10.014;2022-11-04T13:45:55;13.60;99.90
29363;DHT22;16349;53.672;10.014;2022-11-04T13:48:25;13.50;99.90
29363;DHT22;16349;53.672;10.014;2022-11-04T13:50:59;13.60;99.90
29363;DHT22;16349;53.672;10.014;2022-11-04T13:53:44;13.60;99.90
29363;DHT22;16349;53.672;10.014;2022-11-04T13:56:29;13.60;99.90
29363;DHT22;16349;53.672;10.014;2022-11-04T13:58:58;13.60;99.90
29363;DHT22;16349;53.672;10.014;2022-11-04T14:01:27;13.50;99.90
29363;DHT22;16349;53.672;10.014;2022-11-04T14:04:04;13.40;99.90
29363;DHT22;16349;53.672;10.014;2022-11-04T14:06:56;13.40;99.90
29363;DHT22;16349;53.672;10.014;2022-11-04T14:09:50;13.40;99.90
29363;DHT22;16349;53.672;10.014;2022-11-04T14:12:31;13.30;99.90
29363;DHT22;16349;53.672;10.014;2022-11-04T14:15:15;13.30;99.90
29363;DHT22;16349;53.672;10.014;2022-11-04T14:18:01;13.30;99.90
29363;DHT22;16349;53.672;10.014;2022-11-04T14:20:33;13.20;99.90
29363;DHT22;16349;53.672;10.014;2022-11-04T14:23:03;13.20;99.90
29363;DHT22;16349;53.672;10.014;2022-11-04T14:25:36;13.20;99.90
29363;DHT22;16349;53.672;10.014;2022-11-04T14:28:25;13.20;99.90
29363;DHT22;16349;53.672;10.014;2022-11-04T14:30:54;13.10;99.90
29363;DHT22;16349;53.672;10.014;2022-11-04T14:33:30;13.00;99.90
29363;DHT22;16349;53.672;10.014;2022-11-04T14:36:15;13.00;99.90
29363;DHT22;16349;53.672;10.014;2022-11-04T14:38:43;13.00;99.90
29363;DHT22;16349;53.672;10.014;2022-11-04T14:41:20;12.80;99.90
29363;DHT22;16349;53.672;10.014;2022-11-04T14:43:48;12.70;99.90
29363;DHT22;16349;53.672;10.014;2022-11-04T14:46:20;12.60;99.90
29363;DHT22;16349;53.672;10.014;2022-11-04T14:48:52;12.60;99.90
29363;DHT22;16349;53.672;10.014;2022-11-04T14:51:24;12.60;99.90
29363;DHT22;16349;53.672;10.014;2022-11-04T14:53:55;12.60;99.90
29363;DHT22;16349;53.672;10.014;2022-11-04T14:56:24;12.50;99.90
29363;DHT22;16349;53.672;10.014;2022-11-04T14:58:57;12.50;99.90
29363;DHT22;16349;53.672;10.014;2022-11-04T15:01:25;12.50;99.90
29363;DHT22;16349;53.672;10.014;2022-11-04T15:03:55;12.50;99.90
29363;DHT22;16349;53.672;10.014;2022-11-04T15:06:26;12.50;99.90
29363;DHT22;16349;53.672;10.014;2022-11-04T15:08:55;12.40;99.90
29363;DHT22;16349;53.672;10.014;2022-11-04T15:11:24;12.40;99.90
29363;DHT22;16349;53.672;10.014;2022-11-04T15:14:13;12.40;99.90
29363;DHT22;16349;53.672;10.014;2022-11-04T15:16:42;12.40;99.90
29363;DHT22;16349;53.672;10.014;2022-11-04T15:19:10;12.40;99.90
29363;DHT22;16349;53.672;10.014;2022-11-04T15:21:40;12.30;99.90
29363;DHT22;16349;53.672;10.014;2022-11-04T15:24:13;12.20;99.90
29363;DHT22;16349;53.672;10.014;2022-11-04T15:26:42;12.20;99.90
29363;DHT22;16349;53.672;10.014;2022-11-04T15:29:15;12.20;99.90
29363;DHT22;16349;53.672;10.014;2022-11-04T15:31:51;12.20;99.90
29363;DHT22;16349;53.672;10.014;2022-11-04T15:34:19;12.10;99.90
29363;DHT22;16349;53.672;10.014;2022-11-04T15:36:48;12.10;99.90
29363;DHT22;16349;53.672;10.014;2022-11-04T15:39:19;12.10;99.90
29363;DHT22;16349;53.672;10.014;2022-11-04T15:41:50;12.10;99.90
29363;DHT22;16349;53.672;10.014;2022-11-04T15:44:36;12.00;99.90
29363;DHT22;16349;53.672;10.014;2022-11-04T15:47:21;11.90;99.90
29363;DHT22;16349;53.672;10.014;2022-11-04T15:49:49;11.90;99.90
29363;DHT22;16349;53.672;10.014;2022-11-04T15:52:20;11.80;99.90
29363;DHT22;16349;53.672;10.014;2022-11-04T15:54:49;11.80;99.90